Time;durP1;ratioP1;P1;durP2;ratioP2;P2;SDS_P1;SDS_P2;PMS_P1;PMS_P2;Temp;Humidity;BMP_temperature;BMP_pressure;BME280_temperature;BME280_humidity;BME280_pressure;Samples;Min_cycle;Max_cycle;Signal;HPM_P1;HPM_P2
2023/12/09 00:01:39;;;;;;;28.80;12.47;;;;;;;;;;4988921;28;20251;-75
2023/12/09 00:04:04;;;;;;;35.83;13.70;;;;;;;;;;4988933;28;20227;-74
2023/12/09 00:06:30;;;;;;;39.23;14.67;;;;;;;;;;4987164;28;20244;-74
2023/12/09 00:08:55;;;;;;;34.83;14.17;;;;;;;;;;4991452;28;20618;-74
2023/12/09 00:11:21;;;;;;;32.63;13.73;;;;;;;;;;4986201;28;20322;-74
2023/12/09 00:13:46;;;;;;;28.10;13.60;;;;;;;;;;4987516;28;20704;-74
2023/12/09 00:16:11;;;;;;;30.07;13.33;;;;;;;;;;4977524;28;20326;-74
2023/12/09 00:18:36;;;;;;;27.53;12.93;;;;;;;;;;4987462;28;20255;-74
2023/12/09 00:21:02;;;;;;;28.50;12.53;;;;;;;;;;4991575;28;20715;-74
2023/12/09 00:23:28;;;;;;;23.50;11.93;;;;;;;;;;4986609;28;20715;-74
2023/12/09 00:25:53;;;;;;;25.07;11.80;;;;;;;;;;4986955;28;20251;-74
2023/12/09 00:28:18;;;;;;;26.23;11.73;;;;;;;;;;4984834;28;20349;-75
2023/12/09 00:30:43;;;;;;;27.60;11.93;;;;;;;;;;4972897;28;20696;-75
2023/12/09 00:33:09;;;;;;;26.77;12.10;;;;;;;;;;4988446;28;20303;-75
2023/12/09 00:35:34;;;;;;;28.20;12.37;;;;;;;;;;4977477;28;20231;-75
2023/12/09 00:38:00;;;;;;;26.80;12.60;;;;;;;;;;4989500;28;20686;-75
2023/12/09 00:40:25;;;;;;;27.27;12.57;;;;;;;;;;4992024;28;20310;-74
2023/12/09 00:42:50;;;;;;;24.17;11.93;;;;;;;;;;4995035;28;20305;-75
2023/12/09 00:45:16;;;;;;;28.30;13.43;;;;;;;;;;4990026;28;21014;-74
2023/12/09 00:47:41;;;;;;;27.67;12.87;;;;;;;;;;4992309;28;20639;-74
2023/12/09 00:50:06;;;;;;;35.60;15.00;;;;;;;;;;4978136;28;20231;-74
2023/12/09 00:52:32;;;;;;;34.00;15.63;;;;;;;;;;4984920;28;20305;-74
2023/12/09 00:54:57;;;;;;;43.77;19.10;;;;;;;;;;4999251;28;20220;-74
2023/12/09 00:57:24;;;;;;;42.80;17.00;;;;;;;;;;4990216;28;20239;-69
2023/12/09 00:59:49;;;;;;;34.63;15.87;;;;;;;;;;4977796;28;20215;-70
2023/12/09 01:02:15;;;;;;;31.47;13.90;;;;;;;;;;4978447;28;20216;-69
2023/12/09 01:04:40;;;;;;;32.07;14.23;;;;;;;;;;4992810;28;20258;-70
2023/12/09 01:07:05;;;;;;;25.83;12.07;;;;;;;;;;4997744;28;20219;-69
2023/12/09 01:09:31;;;;;;;27.13;12.57;;;;;;;;;;4979680;28;20241;-68
2023/12/09 01:11:56;;;;;;;27.20;11.80;;;;;;;;;;4999953;28;20251;-71
2023/12/09 01:14:21;;;;;;;27.00;12.63;;;;;;;;;;4989289;28;20254;-70
2023/12/09 01:16:47;;;;;;;24.73;11.20;;;;;;;;;;4988890;28;20784;-71
2023/12/09 01:19:12;;;;;;;23.60;10.77;;;;;;;;;;4988652;28;20219;-70
2023/12/09 01:21:38;;;;;;;21.87;11.00;;;;;;;;;;4993177;28;20314;-70
2023/12/09 01:24:04;;;;;;;23.30;11.30;;;;;;;;;;4984019;28;20234;-70
2023/12/09 01:26:30;;;;;;;24.53;11.33;;;;;;;;;;4993102;28;20226;-71
2023/12/09 01:28:55;;;;;;;24.23;11.60;;;;;;;;;;4995453;28;20235;-70
2023/12/09 01:31:20;;;;;;;23.57;11.37;;;;;;;;;;4993897;28;20293;-71
2023/12/09 01:33:46;;;;;;;25.50;11.60;;;;;;;;;;4991954;28;20614;-70
2023/12/09 01:36:11;;;;;;;25.03;12.00;;;;;;;;;;4973793;28;20727;-71
2023/12/09 01:38:37;;;;;;;28.93;12.57;;;;;;;;;;4990660;28;20274;-75
2023/12/09 01:41:02;;;;;;;34.57;14.80;;;;;;;;;;4992725;28;20227;-75
2023/12/09 01:43:27;;;;;;;27.97;13.47;;;;;;;;;;4994964;28;20266;-75
2023/12/09 01:45:53;;;;;;;26.60;12.90;;;;;;;;;;4987794;28;20223;-75
2023/12/09 01:48:19;;;;;;;27.10;12.30;;;;;;;;;;4993517;28;20242;-75
2023/12/09 01:50:44;;;;;;;26.30;12.10;;;;;;;;;;4989464;28;20290;-74
2023/12/09 01:53:10;;;;;;;25.83;12.07;;;;;;;;;;4991370;28;20235;-75
2023/12/09 01:55:35;;;;;;;25.63;11.77;;;;;;;;;;4989064;28;20214;-75
2023/12/09 01:58:00;;;;;;;26.73;12.20;;;;;;;;;;4990130;28;20261;-73
2023/12/09 02:00:26;;;;;;;28.80;12.77;;;;;;;;;;4990540;28;20290;-75
2023/12/09 02:02:51;;;;;;;33.67;14.60;;;;;;;;;;4992921;28;20258;-75
2023/12/09 02:05:16;;;;;;;26.47;11.60;;;;;;;;;;4989959;28;20889;-71
2023/12/09 02:07:42;;;;;;;35.77;14.40;;;;;;;;;;4993957;28;20326;-70
2023/12/09 02:10:07;;;;;;;40.90;16.40;;;;;;;;;;4996197;28;20309;-75
2023/12/09 02:12:37;;;;;;;39.00;14.73;;;;;;;;;;4990758;28;20238;-75
2023/12/09 02:15:03;;;;;;;32.47;13.93;;;;;;;;;;4990148;28;20223;-75
2023/12/09 02:17:50;;;;;;;31.23;13.57;;;;;;;;;;4995903;28;20309;-75
2023/12/09 02:20:15;;;;;;;30.83;13.63;;;;;;;;;;4987892;28;20314;-75
2023/12/09 02:22:40;;;;;;;26.93;12.60;;;;;;;;;;4986526;28;20362;-75
2023/12/09 02:25:06;;;;;;;25.40;12.23;;;;;;;;;;4996174;28;20226;-75
2023/12/09 02:27:35;;;;;;;27.73;12.60;;;;;;;;;;4992308;28;20234;-74
2023/12/09 02:30:15;;;;;;;27.17;12.27;;;;;;;;;;4983471;28;20235;-75
2023/12/09 02:32:40;;;;;;;25.63;12.20;;;;;;;;;;4992208;28;20826;-75
2023/12/09 02:35:06;;;;;;;23.47;11.57;;;;;;;;;;4992596;28;20227;-74
2023/12/09 02:37:32;;;;;;;25.57;12.67;;;;;;;;;;4994541;28;20249;-74
2023/12/09 02:39:58;;;;;;;25.90;12.77;;;;;;;;;;4983281;28;20774;-75
2023/12/09 02:42:25;;;;;;;26.80;12.87;;;;;;;;;;4983451;28;20706;-75
2023/12/09 02:44:50;;;;;;;27.03;12.87;;;;;;;;;;4984004;28;20223;-74
2023/12/09 02:47:15;;;;;;;29.07;12.77;;;;;;;;;;4990195;28;20242;-75
2023/12/09 02:49:41;;;;;;;27.70;12.93;;;;;;;;;;4990473;28;21092;-75
2023/12/09 02:52:07;;;;;;;28.80;13.43;;;;;;;;;;4993785;28;20258;-75
2023/12/09 02:54:32;;;;;;;29.07;13.33;;;;;;;;;;4989448;28;20298;-75
2023/12/09 02:56:57;;;;;;;27.70;12.83;;;;;;;;;;4995767;28;21134;-75
2023/12/09 02:59:23;;;;;;;29.87;13.50;;;;;;;;;;4991264;28;20242;-75
2023/12/09 03:01:48;;;;;;;27.60;13.13;;;;;;;;;;4990008;28;20722;-75
2023/12/09 03:04:13;;;;;;;27.67;12.30;;;;;;;;;;4991271;28;21166;-75
2023/12/09 03:06:39;;;;;;;28.97;13.37;;;;;;;;;;4974083;28;20236;-75
2023/12/09 03:09:04;;;;;;;28.50;13.23;;;;;;;;;;4987821;28;20241;-75
2023/12/09 03:11:29;;;;;;;27.03;12.77;;;;;;;;;;4991296;28;20238;-75
2023/12/09 03:13:55;;;;;;;27.87;13.10;;;;;;;;;;4992449;28;20233;-75
2023/12/09 03:16:20;;;;;;;29.20;13.40;;;;;;;;;;4988132;28;20830;-75
2023/12/09 03:18:45;;;;;;;28.60;12.93;;;;;;;;;;4984512;28;20279;-76
2023/12/09 03:21:15;;;;;;;30.43;13.63;;;;;;;;;;4975002;28;20226;-76
2023/12/09 03:23:43;;;;;;;28.57;13.03;;;;;;;;;;4996032;28;20326;-76
2023/12/09 03:26:15;;;;;;;26.50;12.70;;;;;;;;;;4993815;28;20225;-75
2023/12/09 03:28:41;;;;;;;27.03;12.83;;;;;;;;;;4990834;28;20235;-75
2023/12/09 03:31:07;;;;;;;27.53;12.70;;;;;;;;;;4988898;28;20298;-75
2023/12/09 03:33:32;;;;;;;27.10;12.93;;;;;;;;;;4989205;28;20792;-75
2023/12/09 03:35:57;;;;;;;26.40;12.73;;;;;;;;;;4994886;28;20381;-75
2023/12/09 03:38:23;;;;;;;28.80;13.13;;;;;;;;;;4989222;28;20239;-75
2023/12/09 03:40:48;;;;;;;26.50;12.87;;;;;;;;;;4974412;28;20218;-75
2023/12/09 03:43:13;;;;;;;25.53;12.20;;;;;;;;;;4987528;28;20219;-75
2023/12/09 03:45:40;;;;;;;26.60;12.07;;;;;;;;;;4992503;28;20237;-75
2023/12/09 03:48:05;;;;;;;27.50;12.67;;;;;;;;;;4976723;28;20227;-75
2023/12/09 03:50:31;;;;;;;26.20;12.30;;;;;;;;;;4988569;28;20658;-73
2023/12/09 03:52:56;;;;;;;27.57;12.80;;;;;;;;;;4989083;28;20227;-76
2023/12/09 03:55:21;;;;;;;27.97;12.70;;;;;;;;;;4988559;28;20297;-76
2023/12/09 03:57:47;;;;;;;25.37;11.70;;;;;;;;;;4988566;28;20235;-76
2023/12/09 04:00:12;;;;;;;30.17;12.97;;;;;;;;;;4991546;28;20302;-75
2023/12/09 04:02:38;;;;;;;26.43;12.23;;;;;;;;;;4990210;28;20235;-76
2023/12/09 04:05:03;;;;;;;28.07;12.63;;;;;;;;;;4988086;28;20318;-76
2023/12/09 04:07:28;;;;;;;28.33;12.93;;;;;;;;;;4973366;28;20231;-75
2023/12/09 04:09:54;;;;;;;28.67;12.70;;;;;;;;;;4985117;28;20230;-76
2023/12/09 04:12:19;;;;;;;25.93;12.23;;;;;;;;;;4977539;28;20227;-76
2023/12/09 04:14:45;;;;;;;28.67;12.50;;;;;;;;;;4982326;28;20511;-76
2023/12/09 04:17:10;;;;;;;23.70;11.50;;;;;;;;;;4994943;28;20223;-76
2023/12/09 04:19:35;;;;;;;24.50;12.00;;;;;;;;;;4996671;28;20305;-76
2023/12/09 04:22:01;;;;;;;24.90;11.80;;;;;;;;;;4994524;28;20289;-75
2023/12/09 04:24:26;;;;;;;25.07;11.97;;;;;;;;;;4992777;28;20231;-75
2023/12/09 04:26:51;;;;;;;25.70;12.20;;;;;;;;;;4979822;28;20883;-75
2023/12/09 04:29:17;;;;;;;23.77;11.73;;;;;;;;;;4978210;28;20720;-76
2023/12/09 04:31:42;;;;;;;26.10;12.07;;;;;;;;;;4992208;28;20230;-75
2023/12/09 04:34:08;;;;;;;25.57;12.57;;;;;;;;;;4977925;28;20346;-70
2023/12/09 04:36:33;;;;;;;26.07;11.90;;;;;;;;;;4978532;28;20219;-69
2023/12/09 04:38:58;;;;;;;25.93;11.70;;;;;;;;;;4996368;28;20228;-70
2023/12/09 04:41:24;;;;;;;28.93;12.60;;;;;;;;;;5001790;28;20259;-69
2023/12/09 04:43:50;;;;;;;26.03;12.37;;;;;;;;;;4991982;28;20238;-69
2023/12/09 04:46:16;;;;;;;25.97;12.13;;;;;;;;;;4992710;28;20226;-69
2023/12/09 04:48:43;;;;;;;26.00;11.80;;;;;;;;;;4991458;28;20247;-70
2023/12/09 04:51:08;;;;;;;26.83;12.03;;;;;;;;;;4985616;28;20223;-70
2023/12/09 04:53:33;;;;;;;23.23;11.23;;;;;;;;;;4988351;28;20297;-68
2023/12/09 04:55:59;;;;;;;28.13;12.33;;;;;;;;;;4984634;28;20608;-70
2023/12/09 04:58:25;;;;;;;22.97;11.27;;;;;;;;;;4989235;28;20220;-69
2023/12/09 05:00:50;;;;;;;23.93;11.13;;;;;;;;;;4985999;28;20230;-70
2023/12/09 05:03:15;;;;;;;25.97;11.23;;;;;;;;;;4984326;28;20225;-70
2023/12/09 05:05:41;;;;;;;23.37;11.07;;;;;;;;;;4984548;28;20323;-70
2023/12/09 05:08:06;;;;;;;22.73;10.90;;;;;;;;;;4988544;28;20235;-76
2023/12/09 05:10:32;;;;;;;25.13;10.97;;;;;;;;;;4989469;28;20231;-75
2023/12/09 05:12:57;;;;;;;23.73;11.43;;;;;;;;;;4995561;28;20338;-75
2023/12/09 05:15:22;;;;;;;23.37;10.97;;;;;;;;;;4996451;28;20224;-76
2023/12/09 05:17:48;;;;;;;23.40;11.27;;;;;;;;;;4993781;28;20234;-76
2023/12/09 05:20:14;;;;;;;23.20;10.93;;;;;;;;;;4997917;28;20223;-73
2023/12/09 05:22:39;;;;;;;24.20;10.67;;;;;;;;;;4999348;28;20230;-75
2023/12/09 05:25:04;;;;;;;22.37;10.63;;;;;;;;;;4998959;28;20280;-75
2023/12/09 05:27:30;;;;;;;23.70;11.13;;;;;;;;;;4993905;28;20223;-75
2023/12/09 05:29:55;;;;;;;25.07;10.90;;;;;;;;;;4995984;28;20261;-76
2023/12/09 05:32:21;;;;;;;24.53;11.87;;;;;;;;;;4997999;28;20258;-75
2023/12/09 05:34:46;;;;;;;24.13;11.87;;;;;;;;;;4998681;28;20725;-76
2023/12/09 05:37:11;;;;;;;24.13;11.37;;;;;;;;;;4979544;28;20223;-76
2023/12/09 05:39:37;;;;;;;25.57;12.40;;;;;;;;;;5003408;28;20247;-76
2023/12/09 05:42:04;;;;;;;26.63;12.50;;;;;;;;;;4999627;28;20226;-75
2023/12/09 05:44:29;;;;;;;26.70;12.53;;;;;;;;;;4995626;28;20231;-76
2023/12/09 05:46:55;;;;;;;31.43;13.03;;;;;;;;;;4993631;28;20215;-75
2023/12/09 05:49:20;;;;;;;28.03;13.53;;;;;;;;;;4993420;28;20246;-75
2023/12/09 05:51:46;;;;;;;28.83;13.97;;;;;;;;;;4993770;28;20227;-76
2023/12/09 05:54:11;;;;;;;29.67;12.93;;;;;;;;;;4991901;28;20640;-75
2023/12/09 05:56:36;;;;;;;32.53;14.23;;;;;;;;;;4989482;28;20229;-75
2023/12/09 05:59:02;;;;;;;32.30;13.77;;;;;;;;;;4990357;28;20228;-75
2023/12/09 06:01:27;;;;;;;30.43;13.90;;;;;;;;;;4991338;28;20238;-74
2023/12/09 06:03:52;;;;;;;34.40;15.10;;;;;;;;;;4993282;28;20223;-75
2023/12/09 06:06:17;;;;;;;33.93;15.50;;;;;;;;;;4986994;28;20626;-75
2023/12/09 06:08:43;;;;;;;36.17;15.43;;;;;;;;;;4987873;28;20244;-75
2023/12/09 06:11:08;;;;;;;33.33;14.87;;;;;;;;;;4988645;28;20277;-75
2023/12/09 06:13:34;;;;;;;34.10;15.53;;;;;;;;;;4991870;28;20259;-68
2023/12/09 06:15:59;;;;;;;33.50;15.17;;;;;;;;;;4989057;28;20354;-68
2023/12/09 06:18:25;;;;;;;31.03;14.53;;;;;;;;;;4982941;28;20254;-76
2023/12/09 06:20:50;;;;;;;29.13;13.93;;;;;;;;;;4988059;28;20224;-76
2023/12/09 06:23:15;;;;;;;26.83;12.70;;;;;;;;;;4991187;28;20234;-76
2023/12/09 06:25:41;;;;;;;27.93;12.50;;;;;;;;;;5001560;28;20816;-74
2023/12/09 06:28:06;;;;;;;22.50;10.90;;;;;;;;;;4993231;28;20223;-75
2023/12/09 06:30:33;;;;;;;21.90;10.60;;;;;;;;;;4982537;28;20238;-75
2023/12/09 06:32:58;;;;;;;22.80;10.60;;;;;;;;;;5002707;28;20227;-75
2023/12/09 06:35:23;;;;;;;21.90;10.27;;;;;;;;;;4981172;28;20223;-76
2023/12/09 06:37:49;;;;;;;21.60;10.07;;;;;;;;;;4992810;28;20253;-69
2023/12/09 06:40:14;;;;;;;20.47;9.90;;;;;;;;;;4992001;28;20305;-75
2023/12/09 06:42:39;;;;;;;20.97;9.87;;;;;;;;;;4982268;28;20227;-76
2023/12/09 06:45:05;;;;;;;17.83;9.20;;;;;;;;;;4988323;28;20255;-76
2023/12/09 06:47:32;;;;;;;19.43;9.87;;;;;;;;;;4999918;28;20358;-76
2023/12/09 06:49:57;;;;;;;21.77;10.20;;;;;;;;;;4990277;28;20709;-76
2023/12/09 06:52:22;;;;;;;19.90;10.13;;;;;;;;;;4999030;28;20241;-76
2023/12/09 06:54:48;;;;;;;19.07;9.13;;;;;;;;;;4977357;28;20222;-76
2023/12/09 06:57:14;;;;;;;20.30;9.93;;;;;;;;;;4992564;28;20237;-75
2023/12/09 06:59:40;;;;;;;20.23;9.90;;;;;;;;;;4991156;28;20218;-76
2023/12/09 07:02:06;;;;;;;22.63;10.33;;;;;;;;;;4977300;28;20215;-76
2023/12/09 07:04:33;;;;;;;19.17;9.70;;;;;;;;;;4988123;28;20229;-76
2023/12/09 07:07:01;;;;;;;18.43;9.10;;;;;;;;;;4990856;28;20763;-76
2023/12/09 07:09:26;;;;;;;18.17;8.70;;;;;;;;;;4989342;28;20359;-76
2023/12/09 07:11:52;;;;;;;16.33;8.37;;;;;;;;;;4994648;28;20312;-76
2023/12/09 07:14:18;;;;;;;19.37;9.43;;;;;;;;;;4982003;28;20274;-74
2023/12/09 07:16:43;;;;;;;18.37;9.30;;;;;;;;;;4990058;28;20227;-75
2023/12/09 07:19:09;;;;;;;18.30;9.40;;;;;;;;;;4989176;28;20220;-75
2023/12/09 07:21:34;;;;;;;18.53;9.50;;;;;;;;;;4988024;28;20218;-76
2023/12/09 07:24:00;;;;;;;20.90;9.27;;;;;;;;;;4974245;28;20284;-75
2023/12/09 07:26:26;;;;;;;21.70;10.30;;;;;;;;;;4988577;28;20242;-75
2023/12/09 07:28:52;;;;;;;24.73;10.53;;;;;;;;;;4975997;28;20713;-75
2023/12/09 07:31:17;;;;;;;23.90;11.03;;;;;;;;;;4986231;28;20219;-76
2023/12/09 07:33:43;;;;;;;30.53;14.00;;;;;;;;;;4988557;28;20241;-75
2023/12/09 07:36:09;;;;;;;27.33;12.43;;;;;;;;;;4992323;28;20239;-75
2023/12/09 07:38:34;;;;;;;27.93;13.33;;;;;;;;;;4974779;28;20670;-76
2023/12/09 07:41:00;;;;;;;32.33;14.80;;;;;;;;;;4990825;28;20227;-76
2023/12/09 07:43:26;;;;;;;34.07;15.00;;;;;;;;;;4990110;28;20357;-71
2023/12/09 07:45:51;;;;;;;37.03;15.83;;;;;;;;;;4992532;28;20229;-69
2023/12/09 07:48:17;;;;;;;35.63;15.53;;;;;;;;;;4992695;28;20316;-69
2023/12/09 07:50:42;;;;;;;33.63;14.87;;;;;;;;;;4993356;28;20227;-70
2023/12/09 07:53:08;;;;;;;32.80;15.83;;;;;;;;;;4994116;28;20235;-69
2023/12/09 07:55:36;;;;;;;27.73;13.20;;;;;;;;;;4978899;28;20234;-76
2023/12/09 07:58:01;;;;;;;24.43;12.00;;;;;;;;;;4997992;28;20234;-69
2023/12/09 08:00:27;;;;;;;24.57;12.00;;;;;;;;;;4991931;28;20340;-69
2023/12/09 08:02:55;;;;;;;28.60;12.83;;;;;;;;;;4996769;28;20911;-70
2023/12/09 08:05:21;;;;;;;35.77;16.57;;;;;;;;;;4993518;28;20227;-70
2023/12/09 08:07:47;;;;;;;29.87;13.87;;;;;;;;;;4980797;28;20761;-70
2023/12/09 08:10:12;;;;;;;28.00;13.40;;;;;;;;;;4977135;28;20234;-69
2023/12/09 08:12:38;;;;;;;32.77;14.03;;;;;;;;;;4984201;28;20735;-71
2023/12/09 08:15:04;;;;;;;40.37;17.67;;;;;;;;;;4990225;28;20692;-69
2023/12/09 08:17:31;;;;;;;34.10;15.97;;;;;;;;;;4978495;28;20805;-69
2023/12/09 08:19:56;;;;;;;27.63;13.30;;;;;;;;;;4984719;28;20368;-75
2023/12/09 08:22:21;;;;;;;30.37;13.37;;;;;;;;;;4992686;28;20673;-75
2023/12/09 08:24:47;;;;;;;27.20;12.80;;;;;;;;;;4993139;28;20282;-75
2023/12/09 08:27:12;;;;;;;25.67;12.57;;;;;;;;;;4992913;28;20219;-75
2023/12/09 08:29:38;;;;;;;27.70;13.10;;;;;;;;;;4989962;28;20223;-68
2023/12/09 08:32:04;;;;;;;23.50;12.33;;;;;;;;;;4983896;28;20222;-69
2023/12/09 08:34:29;;;;;;;30.33;13.90;;;;;;;;;;4989868;28;20230;-69
2023/12/09 08:36:55;;;;;;;22.60;11.33;;;;;;;;;;4994004;28;20242;-70
2023/12/09 08:39:22;;;;;;;23.70;10.73;;;;;;;;;;4990220;28;20316;-70
2023/12/09 08:41:47;;;;;;;20.30;10.27;;;;;;;;;;4994337;28;20227;-69
2023/12/09 08:44:13;;;;;;;26.33;10.50;;;;;;;;;;4994221;28;20226;-69
2023/12/09 08:46:39;;;;;;;20.30;10.53;;;;;;;;;;4992834;28;20266;-69
2023/12/09 08:49:04;;;;;;;25.37;11.27;;;;;;;;;;4991011;28;20318;-70
2023/12/09 08:51:29;;;;;;;25.47;11.30;;;;;;;;;;4993905;28;20288;-69
2023/12/09 08:53:55;;;;;;;25.63;11.50;;;;;;;;;;4973422;28;20243;-70
2023/12/09 08:56:20;;;;;;;24.43;11.43;;;;;;;;;;4987640;28;20231;-70
2023/12/09 08:58:46;;;;;;;34.40;12.10;;;;;;;;;;4976148;28;20228;-69
2023/12/09 09:01:12;;;;;;;24.60;11.30;;;;;;;;;;5000786;28;20218;-69
2023/12/09 09:03:37;;;;;;;20.17;9.97;;;;;;;;;;4977320;28;20223;-68
2023/12/09 09:06:03;;;;;;;23.07;10.63;;;;;;;;;;5000480;28;20226;-69
2023/12/09 09:08:28;;;;;;;18.60;9.93;;;;;;;;;;4989453;28;20279;-75
2023/12/09 09:10:55;;;;;;;23.90;11.03;;;;;;;;;;4992732;28;20614;-76
2023/12/09 09:13:21;;;;;;;20.10;10.23;;;;;;;;;;4990857;28;20238;-75
2023/12/09 09:15:46;;;;;;;19.00;9.83;;;;;;;;;;4987593;28;20223;-74
2023/12/09 09:18:12;;;;;;;16.77;9.27;;;;;;;;;;4991184;28;20223;-74
2023/12/09 09:20:37;;;;;;;18.13;9.37;;;;;;;;;;4990867;28;20227;-76
2023/12/09 09:23:02;;;;;;;18.63;9.70;;;;;;;;;;4992967;28;20712;-73
2023/12/09 09:25:28;;;;;;;16.47;8.87;;;;;;;;;;4987894;28;20276;-75
2023/12/09 09:27:54;;;;;;;17.90;9.03;;;;;;;;;;4998439;28;20342;-70
2023/12/09 09:30:19;;;;;;;17.63;9.10;;;;;;;;;;4987997;28;20235;-69
2023/12/09 09:32:45;;;;;;;15.57;7.97;;;;;;;;;;4990210;28;20228;-68
2023/12/09 09:35:11;;;;;;;15.33;8.17;;;;;;;;;;4992240;28;20219;-69
2023/12/09 09:37:36;;;;;;;18.93;9.90;;;;;;;;;;4976470;28;20258;-70
2023/12/09 09:40:04;;;;;;;20.13;10.10;;;;;;;;;;4985436;28;20237;-70
2023/12/09 09:42:32;;;;;;;19.37;10.23;;;;;;;;;;4991649;28;20231;-74
2023/12/09 09:45:08;;;;;;;21.33;9.90;;;;;;;;;;4993146;28;20326;-75
2023/12/09 09:47:42;;;;;;;22.03;10.10;;;;;;;;;;4974328;28;20262;-75
2023/12/09 09:50:08;;;;;;;22.90;10.60;;;;;;;;;;4975588;28;20242;-70
2023/12/09 09:52:38;;;;;;;20.60;10.40;;;;;;;;;;4988894;28;20242;-75
2023/12/09 09:55:06;;;;;;;18.10;9.20;;;;;;;;;;4987449;28;20345;-74
2023/12/09 09:57:32;;;;;;;14.10;6.73;;;;;;;;;;4981997;28;21020;-74
2023/12/09 09:59:57;;;;;;;11.47;6.43;;;;;;;;;;4988631;28;20222;-74
2023/12/09 10:02:23;;;;;;;13.90;7.53;;;;;;;;;;4989894;28;20353;-74
2023/12/09 10:04:48;;;;;;;19.23;7.90;;;;;;;;;;4998437;28;20216;-75
2023/12/09 10:07:14;;;;;;;13.07;7.33;;;;;;;;;;4975207;28;20215;-72
2023/12/09 10:09:39;;;;;;;12.00;6.70;;;;;;;;;;4987978;28;20235;-74
2023/12/09 10:12:05;;;;;;;12.47;6.80;;;;;;;;;;4990877;28;20226;-74
2023/12/09 10:14:32;;;;;;;13.23;6.37;;;;;;;;;;4990474;28;20593;-72
2023/12/09 10:16:58;;;;;;;15.03;6.47;;;;;;;;;;4988277;28;20583;-74
2023/12/09 10:19:23;;;;;;;14.70;7.67;;;;;;;;;;4989741;28;20231;-74
2023/12/09 10:21:49;;;;;;;12.07;6.30;;;;;;;;;;4990830;28;20393;-73
2023/12/09 10:24:15;;;;;;;15.53;7.27;;;;;;;;;;4992154;28;20305;-72
2023/12/09 10:26:40;;;;;;;17.50;7.80;;;;;;;;;;4990041;28;20593;-74
2023/12/09 10:29:07;;;;;;;15.67;8.00;;;;;;;;;;4992596;28;20243;-74
2023/12/09 10:31:35;;;;;;;15.30;7.97;;;;;;;;;;4991309;28;20913;-74
2023/12/09 10:34:01;;;;;;;15.87;8.07;;;;;;;;;;4993168;28;20227;-74
2023/12/09 10:36:26;;;;;;;9.97;6.10;;;;;;;;;;4989958;28;20250;-74
2023/12/09 10:38:54;;;;;;;12.73;6.27;;;;;;;;;;4990851;28;20290;-70
2023/12/09 10:41:21;;;;;;;13.37;6.30;;;;;;;;;;4989464;28;20261;-75
2023/12/09 10:43:46;;;;;;;19.23;10.10;;;;;;;;;;4992442;28;20241;-69
2023/12/09 10:46:13;;;;;;;14.33;7.50;;;;;;;;;;4992151;28;20616;-69
2023/12/09 10:48:39;;;;;;;12.37;6.83;;;;;;;;;;4980800;28;20239;-69
2023/12/09 10:51:07;;;;;;;11.30;6.27;;;;;;;;;;4990137;28;20222;-70
2023/12/09 10:53:33;;;;;;;35.00;8.07;;;;;;;;;;4988354;28;20697;-74
2023/12/09 10:55:58;;;;;;;21.47;7.57;;;;;;;;;;4991335;28;20229;-73
2023/12/09 10:58:24;;;;;;;13.00;7.07;;;;;;;;;;4993186;28;20246;-76
2023/12/09 11:00:49;;;;;;;13.53;6.93;;;;;;;;;;4991096;28;20313;-74
2023/12/09 11:03:15;;;;;;;13.87;7.23;;;;;;;;;;4994829;28;20226;-74
2023/12/09 11:05:45;;;;;;;12.40;7.00;;;;;;;;;;4992024;28;20253;-74
2023/12/09 11:08:11;;;;;;;16.93;7.40;;;;;;;;;;4977521;28;20223;-74
2023/12/09 11:10:37;;;;;;;12.60;7.20;;;;;;;;;;4973966;28;20230;-73
2023/12/09 11:13:03;;;;;;;17.50;7.47;;;;;;;;;;4991537;28;20284;-73
2023/12/09 11:15:31;;;;;;;12.87;7.10;;;;;;;;;;4990777;28;20231;-73
2023/12/09 11:18:06;;;;;;;13.00;7.00;;;;;;;;;;4982750;28;20268;-73
2023/12/09 11:20:31;;;;;;;13.17;7.13;;;;;;;;;;4985395;28;20245;-69
2023/12/09 11:22:56;;;;;;;12.03;6.60;;;;;;;;;;4975012;28;20713;-69
2023/12/09 11:25:22;;;;;;;11.57;6.87;;;;;;;;;;4985822;28;20310;-74
2023/12/09 11:27:52;;;;;;;10.03;5.70;;;;;;;;;;4986536;28;20234;-73
2023/12/09 11:30:34;;;;;;;8.73;5.10;;;;;;;;;;4980327;28;20234;-74
2023/12/09 11:32:59;;;;;;;8.43;4.90;;;;;;;;;;4975144;28;20231;-73
2023/12/09 11:35:25;;;;;;;10.77;5.83;;;;;;;;;;4991874;28;20223;-75
2023/12/09 11:37:50;;;;;;;12.53;6.30;;;;;;;;;;4991343;28;20223;-74
2023/12/09 11:40:17;;;;;;;13.47;6.50;;;;;;;;;;4989601;28;20239;-73
2023/12/09 11:42:43;;;;;;;13.87;7.43;;;;;;;;;;4989222;28;20246;-74
2023/12/09 11:45:08;;;;;;;14.63;7.67;;;;;;;;;;4999577;28;20223;-73
2023/12/09 11:47:33;;;;;;;14.17;7.60;;;;;;;;;;4976746;28;20293;-73
2023/12/09 11:49:59;;;;;;;15.30;7.60;;;;;;;;;;5000935;28;20658;-73
2023/12/09 11:52:24;;;;;;;13.67;7.17;;;;;;;;;;4980150;28;20306;-73
2023/12/09 11:54:58;;;;;;;14.17;7.73;;;;;;;;;;4989069;28;20310;-69
2023/12/09 11:57:23;;;;;;;13.70;7.47;;;;;;;;;;4990991;28;20681;-69
2023/12/09 11:59:51;;;;;;;12.97;7.30;;;;;;;;;;4974877;28;20311;-68
2023/12/09 12:02:16;;;;;;;14.57;7.50;;;;;;;;;;4997666;28;20218;-70
2023/12/09 12:04:41;;;;;;;13.87;7.13;;;;;;;;;;4977864;28;20230;-69
2023/12/09 12:07:07;;;;;;;13.03;6.90;;;;;;;;;;4975695;28;20858;-70
2023/12/09 12:09:32;;;;;;;9.73;6.10;;;;;;;;;;4982702;28;20246;-70
2023/12/09 12:11:58;;;;;;;9.40;5.70;;;;;;;;;;4975252;28;20717;-70
2023/12/09 12:14:24;;;;;;;13.20;6.53;;;;;;;;;;4975819;28;20311;-74
2023/12/09 12:16:50;;;;;;;11.43;6.30;;;;;;;;;;4987810;28;20230;-74
2023/12/09 12:19:16;;;;;;;11.53;6.00;;;;;;;;;;4990016;28;20218;-73
2023/12/09 12:21:42;;;;;;;11.37;6.00;;;;;;;;;;4980568;28;20306;-74
2023/12/09 12:24:08;;;;;;;11.63;6.43;;;;;;;;;;4989982;28;20409;-74
2023/12/09 12:26:34;;;;;;;12.37;6.70;;;;;;;;;;4987228;28;20721;-69
2023/12/09 12:28:59;;;;;;;12.63;6.70;;;;;;;;;;4983145;28;20235;-69
2023/12/09 12:31:25;;;;;;;11.60;6.87;;;;;;;;;;4992217;28;20323;-67
2023/12/09 12:33:50;;;;;;;12.27;6.97;;;;;;;;;;4997328;28;20275;-68
2023/12/09 12:36:17;;;;;;;11.90;6.90;;;;;;;;;;4994067;28;20250;-69
2023/12/09 12:38:42;;;;;;;12.40;6.90;;;;;;;;;;4987471;28;20238;-73
2023/12/09 12:41:08;;;;;;;12.20;6.80;;;;;;;;;;4998172;28;20823;-73
2023/12/09 12:43:34;;;;;;;11.70;6.63;;;;;;;;;;4973448;28;20284;-74
2023/12/09 12:46:03;;;;;;;12.57;6.90;;;;;;;;;;4978871;28;20284;-74
2023/12/09 12:48:29;;;;;;;12.63;6.73;;;;;;;;;;4995135;28;20269;-74
2023/12/09 12:50:54;;;;;;;16.63;8.07;;;;;;;;;;4981009;28;20705;-73
2023/12/09 12:53:20;;;;;;;12.13;6.93;;;;;;;;;;4992364;28;20231;-73
2023/12/09 12:55:46;;;;;;;14.57;7.43;;;;;;;;;;4996248;28;20872;-73
2023/12/09 12:58:11;;;;;;;25.10;16.13;;;;;;;;;;4979626;28;20231;-72
2023/12/09 13:00:36;;;;;;;12.70;7.67;;;;;;;;;;4993803;28;20219;-72
2023/12/09 13:03:02;;;;;;;11.40;6.37;;;;;;;;;;4996531;28;20302;-73
2023/12/09 13:05:27;;;;;;;9.80;6.03;;;;;;;;;;4997510;28;20231;-73
2023/12/09 13:07:53;;;;;;;12.73;6.47;;;;;;;;;;4981869;28;20247;-75
2023/12/09 13:10:18;;;;;;;12.63;7.03;;;;;;;;;;4994266;28;20231;-74
2023/12/09 13:12:44;;;;;;;13.10;7.40;;;;;;;;;;4985828;28;20285;-73
2023/12/09 13:15:09;;;;;;;12.87;7.20;;;;;;;;;;4998029;28;20216;-74
2023/12/09 13:17:35;;;;;;;14.30;8.07;;;;;;;;;;4993353;28;20231;-74
2023/12/09 13:20:00;;;;;;;25.87;14.60;;;;;;;;;;4998960;28;20223;-74
2023/12/09 13:22:26;;;;;;;13.20;7.93;;;;;;;;;;4980821;28;20728;-74
2023/12/09 13:24:51;;;;;;;11.87;6.90;;;;;;;;;;4992919;28;20580;-69
2023/12/09 13:27:17;;;;;;;15.47;8.40;;;;;;;;;;4994783;28;20766;-69
2023/12/09 13:29:43;;;;;;;20.70;12.63;;;;;;;;;;4996917;28;20605;-69
2023/12/09 13:32:09;;;;;;;11.77;7.23;;;;;;;;;;4992959;28;20283;-71
2023/12/09 13:34:34;;;;;;;30.80;18.70;;;;;;;;;;4983818;28;21034;-69
2023/12/09 13:37:00;;;;;;;19.23;10.33;;;;;;;;;;4995013;28;20218;-73
2023/12/09 13:39:25;;;;;;;15.80;8.07;;;;;;;;;;4988774;28;20239;-74
2023/12/09 13:41:51;;;;;;;13.73;7.63;;;;;;;;;;4991602;28;20233;-74
2023/12/09 13:44:17;;;;;;;12.33;6.93;;;;;;;;;;4992291;28;20370;-74
2023/12/09 13:46:42;;;;;;;12.40;7.03;;;;;;;;;;4994309;28;20250;-74
2023/12/09 13:49:07;;;;;;;14.57;7.43;;;;;;;;;;4994227;28;20239;-73
2023/12/09 13:51:33;;;;;;;12.60;7.10;;;;;;;;;;4989516;28;21941;-73
2023/12/09 13:53:58;;;;;;;14.43;7.73;;;;;;;;;;4993717;28;20227;-73
2023/12/09 13:56:23;;;;;;;12.57;7.50;;;;;;;;;;4991344;28;20231;-73
2023/12/09 13:58:49;;;;;;;14.23;7.57;;;;;;;;;;4994822;28;20230;-73
2023/12/09 14:01:14;;;;;;;12.43;7.10;;;;;;;;;;4991686;28;20926;-73
2023/12/09 14:03:40;;;;;;;12.20;6.70;;;;;;;;;;4977949;28;20232;-73
2023/12/09 14:06:05;;;;;;;11.60;6.80;;;;;;;;;;5001671;28;20251;-73
2023/12/09 14:08:30;;;;;;;12.07;6.57;;;;;;;;;;4981257;28;20269;-73
2023/12/09 14:10:57;;;;;;;10.80;6.57;;;;;;;;;;4991716;28;20234;-73
2023/12/09 14:13:22;;;;;;;11.80;6.83;;;;;;;;;;4990170;28;20226;-73